sensor_id;sensor_type;location;lat;lon;timestamp;pressure;altitude;pressure_sealevel;temperature
76476;BMP280;65308;50.078;14.854;2023-04-24T00:00:24;98117.22;;;9.69
76476;BMP280;65308;50.078;14.854;2023-04-24T00:02:51;98103.97;;;9.74
76476;BMP280;65308;50.078;14.854;2023-04-24T00:05:22;98116.31;;;9.86
76476;BMP280;65308;50.078;14.854;2023-04-24T00:07:49;98113.88;;;9.98
76476;BMP280;65308;50.078;14.854;2023-04-24T00:10:18;98109.75;;;10.11
76476;BMP280;65308;50.078;14.854;2023-04-24T00:12:46;98107.63;;;10.30
76476;BMP280;65308;50.078;14.854;2023-04-24T00:15:16;98109.31;;;10.28
76476;BMP280;65308;50.078;14.854;2023-04-24T00:17:50;98100.34;;;10.31
76476;BMP280;65308;50.078;14.854;2023-04-24T00:20:22;98088.91;;;10.45
76476;BMP280;65308;50.078;14.854;2023-04-24T00:22:50;98083.25;;;10.73
76476;BMP280;65308;50.078;14.854;2023-04-24T00:25:17;98093.84;;;10.82
76476;BMP280;65308;50.078;14.854;2023-04-24T00:27:46;98094.59;;;10.82
76476;BMP280;65308;50.078;14.854;2023-04-24T00:30:13;98084.94;;;10.91
76476;BMP280;65308;50.078;14.854;2023-04-24T00:32:42;98080.09;;;10.89
76476;BMP280;65308;50.078;14.854;2023-04-24T00:35:12;98084.81;;;11.00
76476;BMP280;65308;50.078;14.854;2023-04-24T00:37:44;98083.91;;;11.03
76476;BMP280;65308;50.078;14.854;2023-04-24T00:40:12;98086.44;;;11.12
76476;BMP280;65308;50.078;14.854;2023-04-24T00:42:41;98081.66;;;11.16
76476;BMP280;65308;50.078;14.854;2023-04-24T00:45:11;98087.34;;;11.24
76476;BMP280;65308;50.078;14.854;2023-04-24T00:47:38;98080.56;;;11.28
76476;BMP280;65308;50.078;14.854;2023-04-24T00:50:06;98072.06;;;11.30
76476;BMP280;65308;50.078;14.854;2023-04-24T00:52:33;98082.78;;;11.30
76476;BMP280;65308;50.078;14.854;2023-04-24T00:55:00;98063.03;;;11.27
76476;BMP280;65308;50.078;14.854;2023-04-24T00:57:27;98069.69;;;11.32
76476;BMP280;65308;50.078;14.854;2023-04-24T00:59:54;98067.91;;;11.29
76476;BMP280;65308;50.078;14.854;2023-04-24T01:02:22;98062.63;;;10.94
76476;BMP280;65308;50.078;14.854;2023-04-24T01:04:50;98061.69;;;10.97
76476;BMP280;65308;50.078;14.854;2023-04-24T01:07:18;98064.38;;;10.97
76476;BMP280;65308;50.078;14.854;2023-04-24T01:09:47;98060.06;;;11.05
76476;BMP280;65308;50.078;14.854;2023-04-24T01:12:16;98062.34;;;11.12
76476;BMP280;65308;50.078;14.854;2023-04-24T01:14:43;98059.41;;;11.10
76476;BMP280;65308;50.078;14.854;2023-04-24T01:17:10;98054.81;;;11.11
76476;BMP280;65308;50.078;14.854;2023-04-24T01:19:38;98055.31;;;11.15
76476;BMP280;65308;50.078;14.854;2023-04-24T01:22:10;98047.34;;;11.00
76476;BMP280;65308;50.078;14.854;2023-04-24T01:24:37;98032.91;;;10.92
76476;BMP280;65308;50.078;14.854;2023-04-24T01:27:04;98036.47;;;11.03
76476;BMP280;65308;50.078;14.854;2023-04-24T01:29:31;98035.31;;;11.10
76476;BMP280;65308;50.078;14.854;2023-04-24T01:31:58;98028.81;;;11.17
76476;BMP280;65308;50.078;14.854;2023-04-24T01:34:25;98036.94;;;11.22
76476;BMP280;65308;50.078;14.854;2023-04-24T01:36:52;98043.63;;;11.32
76476;BMP280;65308;50.078;14.854;2023-04-24T01:39:20;98042.66;;;11.36
76476;BMP280;65308;50.078;14.854;2023-04-24T01:41:48;98042.78;;;11.47
76476;BMP280;65308;50.078;14.854;2023-04-24T01:44:15;98046.78;;;11.57
76476;BMP280;65308;50.078;14.854;2023-04-24T01:46:42;98055.72;;;11.48
76476;BMP280;65308;50.078;14.854;2023-04-24T01:49:09;98042.75;;;11.41
76476;BMP280;65308;50.078;14.854;2023-04-24T01:51:36;98050.53;;;11.65
76476;BMP280;65308;50.078;14.854;2023-04-24T01:54:02;98046.25;;;11.73
76476;BMP280;65308;50.078;14.854;2023-04-24T01:56:31;98047.84;;;11.39
76476;BMP280;65308;50.078;14.854;2023-04-24T01:58:59;98032.91;;;11.53
76476;BMP280;65308;50.078;14.854;2023-04-24T02:01:27;98039.69;;;11.54
76476;BMP280;65308;50.078;14.854;2023-04-24T02:03:53;98036.31;;;11.53
76476;BMP280;65308;50.078;14.854;2023-04-24T02:06:21;98031.47;;;11.58
76476;BMP280;65308;50.078;14.854;2023-04-24T02:08:49;98030.66;;;11.51
76476;BMP280;65308;50.078;14.854;2023-04-24T02:11:15;98025.03;;;11.49
76476;BMP280;65308;50.078;14.854;2023-04-24T02:13:43;98015.47;;;11.43
76476;BMP280;65308;50.078;14.854;2023-04-24T02:16:10;98013.47;;;11.38
76476;BMP280;65308;50.078;14.854;2023-04-24T02:18:37;98020.97;;;11.33
76476;BMP280;65308;50.078;14.854;2023-04-24T02:21:03;98015.56;;;11.28
76476;BMP280;65308;50.078;14.854;2023-04-24T02:23:33;98018.06;;;11.11
76476;BMP280;65308;50.078;14.854;2023-04-24T02:26:04;98016.31;;;10.88
76476;BMP280;65308;50.078;14.854;2023-04-24T02:28:31;98017.22;;;10.84
76476;BMP280;65308;50.078;14.854;2023-04-24T02:30:59;98008.78;;;10.71
76476;BMP280;65308;50.078;14.854;2023-04-24T02:33:25;98012.81;;;10.81
76476;BMP280;65308;50.078;14.854;2023-04-24T02:35:52;98013.34;;;10.86
76476;BMP280;65308;50.078;14.854;2023-04-24T02:38:19;98008.56;;;10.90
76476;BMP280;65308;50.078;14.854;2023-04-24T02:40:45;98001.44;;;10.87
76476;BMP280;65308;50.078;14.854;2023-04-24T02:43:12;98009.19;;;10.84
76476;BMP280;65308;50.078;14.854;2023-04-24T02:45:39;98011.88;;;10.84
76476;BMP280;65308;50.078;14.854;2023-04-24T02:48:07;98015.00;;;10.83
76476;BMP280;65308;50.078;14.854;2023-04-24T02:50:33;98006.28;;;10.82
76476;BMP280;65308;50.078;14.854;2023-04-24T02:53:00;98018.16;;;10.81
76476;BMP280;65308;50.078;14.854;2023-04-24T02:55:27;98011.00;;;10.73
76476;BMP280;65308;50.078;14.854;2023-04-24T02:57:53;97992.38;;;10.64
76476;BMP280;65308;50.078;14.854;2023-04-24T03:00:20;98017.03;;;10.68
76476;BMP280;65308;50.078;14.854;2023-04-24T03:02:47;98012.13;;;10.66
76476;BMP280;65308;50.078;14.854;2023-04-24T03:05:16;98008.81;;;10.56
76476;BMP280;65308;50.078;14.854;2023-04-24T03:07:42;98026.03;;;10.70
76476;BMP280;65308;50.078;14.854;2023-04-24T03:10:09;98022.97;;;10.77
76476;BMP280;65308;50.078;14.854;2023-04-24T03:12:36;98018.94;;;10.67
76476;BMP280;65308;50.078;14.854;2023-04-24T03:15:03;98030.56;;;10.64
76476;BMP280;65308;50.078;14.854;2023-04-24T03:17:30;98028.91;;;10.67
76476;BMP280;65308;50.078;14.854;2023-04-24T03:19:59;98026.28;;;10.72
76476;BMP280;65308;50.078;14.854;2023-04-24T03:29:56;98024.78;;;10.51
76476;BMP280;65308;50.078;14.854;2023-04-24T03:32:25;98031.41;;;10.55
76476;BMP280;65308;50.078;14.854;2023-04-24T03:34:52;98025.31;;;10.55
76476;BMP280;65308;50.078;14.854;2023-04-24T03:37:18;98021.00;;;10.57
76476;BMP280;65308;50.078;14.854;2023-04-24T03:39:45;98019.88;;;10.64
76476;BMP280;65308;50.078;14.854;2023-04-24T03:42:11;98009.19;;;10.84
76476;BMP280;65308;50.078;14.854;2023-04-24T03:44:38;98013.88;;;11.10
76476;BMP280;65308;50.078;14.854;2023-04-24T03:47:11;98009.88;;;11.20
76476;BMP280;65308;50.078;14.854;2023-04-24T03:49:37;98005.84;;;11.10
76476;BMP280;65308;50.078;14.854;2023-04-24T03:52:04;98004.72;;;11.17
76476;BMP280;65308;50.078;14.854;2023-04-24T03:54:31;98009.47;;;11.27
76476;BMP280;65308;50.078;14.854;2023-04-24T03:56:57;98003.84;;;11.46
76476;BMP280;65308;50.078;14.854;2023-04-24T03:59:24;98002.91;;;11.54
76476;BMP280;65308;50.078;14.854;2023-04-24T04:01:51;98002.25;;;11.60
76476;BMP280;65308;50.078;14.854;2023-04-24T04:04:20;97990.97;;;11.82
76476;BMP280;65308;50.078;14.854;2023-04-24T04:06:46;98006.84;;;11.85
76476;BMP280;65308;50.078;14.854;2023-04-24T04:09:16;98004.31;;;11.76
76476;BMP280;65308;50.078;14.854;2023-04-24T04:11:42;98006.31;;;11.55
76476;BMP280;65308;50.078;14.854;2023-04-24T04:14:09;98017.97;;;11.46
76476;BMP280;65308;50.078;14.854;2023-04-24T04:16:35;98018.28;;;11.33
76476;BMP280;65308;50.078;14.854;2023-04-24T04:19:03;98023.94;;;11.15
76476;BMP280;65308;50.078;14.854;2023-04-24T04:21:32;98026.97;;;11.49
76476;BMP280;65308;50.078;14.854;2023-04-24T04:24:00;98023.47;;;11.89
76476;BMP280;65308;50.078;14.854;2023-04-24T04:26:30;98026.88;;;12.21
76476;BMP280;65308;50.078;14.854;2023-04-24T04:28:57;98031.22;;;12.50
76476;BMP280;65308;50.078;14.854;2023-04-24T04:31:26;98034.00;;;12.73
76476;BMP280;65308;50.078;14.854;2023-04-24T04:33:52;98032.88;;;12.85
76476;BMP280;65308;50.078;14.854;2023-04-24T04:36:20;98036.00;;;12.78
76476;BMP280;65308;50.078;14.854;2023-04-24T04:38:50;98033.59;;;12.86
76476;BMP280;65308;50.078;14.854;2023-04-24T04:41:17;98036.22;;;12.69
76476;BMP280;65308;50.078;14.854;2023-04-24T04:46:40;98048.81;;;12.51
76476;BMP280;65308;50.078;14.854;2023-04-24T04:49:13;98050.47;;;12.49
76476;BMP280;65308;50.078;14.854;2023-04-24T04:51:59;98050.81;;;12.62
76476;BMP280;65308;50.078;14.854;2023-04-24T04:59:33;98056.50;;;12.75
76476;BMP280;65308;50.078;14.854;2023-04-24T05:02:04;98051.63;;;12.80
76476;BMP280;65308;50.078;14.854;2023-04-24T05:04:35;98057.31;;;12.93
76476;BMP280;65308;50.078;14.854;2023-04-24T07:55:05;98133.47;;;16.06
76476;BMP280;65308;50.078;14.854;2023-04-24T07:57:35;98130.06;;;16.06
76476;BMP280;65308;50.078;14.854;2023-04-24T08:00:09;98137.63;;;16.07
76476;BMP280;65308;50.078;14.854;2023-04-24T08:03:02;98136.22;;;16.00
76476;BMP280;65308;50.078;14.854;2023-04-24T08:05:43;98142.25;;;16.12
76476;BMP280;65308;50.078;14.854;2023-04-24T08:08:13;98157.38;;;16.27
76476;BMP280;65308;50.078;14.854;2023-04-24T08:20:49;98155.34;;;15.61
76476;BMP280;65308;50.078;14.854;2023-04-24T08:23:19;98159.34;;;15.49
76476;BMP280;65308;50.078;14.854;2023-04-24T08:25:50;98157.31;;;15.61
76476;BMP280;65308;50.078;14.854;2023-04-24T08:28:35;98155.91;;;15.48
76476;BMP280;65308;50.078;14.854;2023-04-24T08:31:08;98148.59;;;15.38
76476;BMP280;65308;50.078;14.854;2023-04-24T08:36:22;98162.88;;;15.27
76476;BMP280;65308;50.078;14.854;2023-04-24T08:38:51;98163.78;;;15.41
76476;BMP280;65308;50.078;14.854;2023-04-24T08:41:23;98162.78;;;15.44
76476;BMP280;65308;50.078;14.854;2023-04-24T08:43:57;98170.59;;;15.53
76476;BMP280;65308;50.078;14.854;2023-04-24T08:46:46;98173.13;;;15.34
76476;BMP280;65308;50.078;14.854;2023-04-24T08:49:29;98171.13;;;15.46
76476;BMP280;65308;50.078;14.854;2023-04-24T08:57:08;98169.94;;;15.30
76476;BMP280;65308;50.078;14.854;2023-04-24T08:59:41;98169.88;;;15.47
76476;BMP280;65308;50.078;14.854;2023-04-24T09:02:12;98170.13;;;15.49
76476;BMP280;65308;50.078;14.854;2023-04-24T09:04:45;98172.06;;;15.60
76476;BMP280;65308;50.078;14.854;2023-04-24T09:07:20;98166.66;;;15.60
76476;BMP280;65308;50.078;14.854;2023-04-24T09:09:53;98171.56;;;15.50
76476;BMP280;65308;50.078;14.854;2023-04-24T09:20:00;98157.63;;;15.93
76476;BMP280;65308;50.078;14.854;2023-04-24T09:22:46;98151.31;;;16.15
76476;BMP280;65308;50.078;14.854;2023-04-24T09:25:13;98159.03;;;16.30
76476;BMP280;65308;50.078;14.854;2023-04-24T09:27:43;98154.44;;;16.24
76476;BMP280;65308;50.078;14.854;2023-04-24T09:30:12;98144.56;;;16.27
76476;BMP280;65308;50.078;14.854;2023-04-24T09:32:45;98155.69;;;16.18
76476;BMP280;65308;50.078;14.854;2023-04-24T09:35:15;98157.25;;;16.38
76476;BMP280;65308;50.078;14.854;2023-04-24T09:37:45;98153.19;;;16.56
76476;BMP280;65308;50.078;14.854;2023-04-24T09:40:16;98151.09;;;16.67
76476;BMP280;65308;50.078;14.854;2023-04-24T09:42:45;98148.38;;;16.67
76476;BMP280;65308;50.078;14.854;2023-04-24T09:45:15;98154.72;;;16.75
76476;BMP280;65308;50.078;14.854;2023-04-24T09:47:42;98161.09;;;16.72
76476;BMP280;65308;50.078;14.854;2023-04-24T09:55:32;98161.66;;;16.41
76476;BMP280;65308;50.078;14.854;2023-04-24T09:58:00;98171.91;;;16.48
76476;BMP280;65308;50.078;14.854;2023-04-24T10:00:32;98168.41;;;16.53
76476;BMP280;65308;50.078;14.854;2023-04-24T10:03:01;98162.22;;;16.58
76476;BMP280;65308;50.078;14.854;2023-04-24T10:05:32;98159.19;;;16.67
76476;BMP280;65308;50.078;14.854;2023-04-24T10:08:03;98167.81;;;16.90
76476;BMP280;65308;50.078;14.854;2023-04-24T10:10:33;98157.16;;;17.17
76476;BMP280;65308;50.078;14.854;2023-04-24T10:13:04;98156.44;;;17.16
76476;BMP280;65308;50.078;14.854;2023-04-24T10:15:32;98153.97;;;17.18
76476;BMP280;65308;50.078;14.854;2023-04-24T10:18:04;98164.47;;;17.22
76476;BMP280;65308;50.078;14.854;2023-04-24T10:20:32;98157.91;;;17.55
76476;BMP280;65308;50.078;14.854;2023-04-24T10:23:00;98158.94;;;18.03
76476;BMP280;65308;50.078;14.854;2023-04-24T10:25:28;98155.06;;;18.44
76476;BMP280;65308;50.078;14.854;2023-04-24T10:48:35;98151.72;;;19.59
76476;BMP280;65308;50.078;14.854;2023-04-24T10:51:03;98151.25;;;19.89
76476;BMP280;65308;50.078;14.854;2023-04-24T10:53:35;98154.06;;;20.25
76476;BMP280;65308;50.078;14.854;2023-04-24T10:56:04;98150.00;;;20.39
76476;BMP280;65308;50.078;14.854;2023-04-24T10:58:39;98141.81;;;20.68
76476;BMP280;65308;50.078;14.854;2023-04-24T11:01:24;98140.13;;;21.09
76476;BMP280;65308;50.078;14.854;2023-04-24T11:03:59;98140.22;;;21.47
76476;BMP280;65308;50.078;14.854;2023-04-24T11:06:35;98137.31;;;21.75
76476;BMP280;65308;50.078;14.854;2023-04-24T11:09:15;98136.78;;;22.00
76476;BMP280;65308;50.078;14.854;2023-04-24T11:11:45;98127.63;;;22.20
76476;BMP280;65308;50.078;14.854;2023-04-24T11:14:27;98127.38;;;22.49
76476;BMP280;65308;50.078;14.854;2023-04-24T11:17:01;98127.06;;;22.77
76476;BMP280;65308;50.078;14.854;2023-04-24T11:24:49;98115.19;;;22.90
76476;BMP280;65308;50.078;14.854;2023-04-24T11:27:29;98115.34;;;23.00
76476;BMP280;65308;50.078;14.854;2023-04-24T11:30:20;98106.78;;;23.28
76476;BMP280;65308;50.078;14.854;2023-04-24T12:03:59;98095.56;;;24.01
76476;BMP280;65308;50.078;14.854;2023-04-24T12:06:28;98080.13;;;23.79
76476;BMP280;65308;50.078;14.854;2023-04-24T12:09:08;98090.72;;;23.92
76476;BMP280;65308;50.078;14.854;2023-04-24T12:11:52;98084.75;;;23.86
76476;BMP280;65308;50.078;14.854;2023-04-24T12:14:21;98081.72;;;23.99
76476;BMP280;65308;50.078;14.854;2023-04-24T12:16:52;98077.19;;;24.29
76476;BMP280;65308;50.078;14.854;2023-04-24T12:29:31;98066.94;;;23.00
76476;BMP280;65308;50.078;14.854;2023-04-24T12:32:00;98068.38;;;23.01
76476;BMP280;65308;50.078;14.854;2023-04-24T12:34:32;98069.38;;;22.89
76476;BMP280;65308;50.078;14.854;2023-04-24T12:37:10;98066.22;;;23.00
76476;BMP280;65308;50.078;14.854;2023-04-24T12:39:38;98072.22;;;23.23
76476;BMP280;65308;50.078;14.854;2023-04-24T12:42:05;98067.78;;;23.35
76476;BMP280;65308;50.078;14.854;2023-04-24T12:52:18;98062.81;;;23.17
76476;BMP280;65308;50.078;14.854;2023-04-24T12:54:47;98059.69;;;22.95
76476;BMP280;65308;50.078;14.854;2023-04-24T12:57:45;98057.63;;;22.38
76476;BMP280;65308;50.078;14.854;2023-04-24T13:00:15;98107.50;;;21.24
76476;BMP280;65308;50.078;14.854;2023-04-24T13:02:43;98108.06;;;20.27
76476;BMP280;65308;50.078;14.854;2023-04-24T13:05:14;98115.63;;;19.30
76476;BMP280;65308;50.078;14.854;2023-04-24T13:10:41;98107.50;;;18.03
76476;BMP280;65308;50.078;14.854;2023-04-24T13:13:11;98108.22;;;17.20
76476;BMP280;65308;50.078;14.854;2023-04-24T13:15:39;98106.59;;;17.31
76476;BMP280;65308;50.078;14.854;2023-04-24T13:18:07;98093.16;;;17.25
76476;BMP280;65308;50.078;14.854;2023-04-24T13:20:39;98088.41;;;16.93
76476;BMP280;65308;50.078;14.854;2023-04-24T13:23:10;98098.41;;;16.80
76476;BMP280;65308;50.078;14.854;2023-04-24T13:31:04;98072.81;;;16.62
76476;BMP280;65308;50.078;14.854;2023-04-24T13:33:50;98072.69;;;16.48
76476;BMP280;65308;50.078;14.854;2023-04-24T13:49:11;98072.31;;;17.01
76476;BMP280;65308;50.078;14.854;2023-04-24T13:51:39;98066.28;;;17.14
76476;BMP280;65308;50.078;14.854;2023-04-24T13:54:07;98074.00;;;17.42
76476;BMP280;65308;50.078;14.854;2023-04-24T13:59:13;98060.50;;;17.55
76476;BMP280;65308;50.078;14.854;2023-04-24T14:01:53;98059.97;;;17.43
76476;BMP280;65308;50.078;14.854;2023-04-24T16:43:40;98086.63;;;15.32
76476;BMP280;65308;50.078;14.854;2023-04-24T16:46:15;98097.44;;;15.27
76476;BMP280;65308;50.078;14.854;2023-04-24T16:48:56;98094.22;;;15.34
76476;BMP280;65308;50.078;14.854;2023-04-24T16:51:39;98102.66;;;15.55
76476;BMP280;65308;50.078;14.854;2023-04-24T16:54:09;98097.47;;;15.62
76476;BMP280;65308;50.078;14.854;2023-04-24T16:56:39;98091.31;;;15.67
76476;BMP280;65308;50.078;14.854;2023-04-24T17:01:43;98097.53;;;15.51
76476;BMP280;65308;50.078;14.854;2023-04-24T17:04:11;98101.94;;;15.54
76476;BMP280;65308;50.078;14.854;2023-04-24T17:06:52;98113.72;;;15.51
76476;BMP280;65308;50.078;14.854;2023-04-24T17:09:28;98110.44;;;15.69
76476;BMP280;65308;50.078;14.854;2023-04-24T17:37:55;98133.66;;;14.34
76476;BMP280;65308;50.078;14.854;2023-04-24T17:43:13;98141.22;;;14.02
76476;BMP280;65308;50.078;14.854;2023-04-24T17:48:36;98147.81;;;14.06
76476;BMP280;65308;50.078;14.854;2023-04-24T17:51:22;98146.09;;;13.97
76476;BMP280;65308;50.078;14.854;2023-04-24T17:56:36;98156.38;;;13.88
76476;BMP280;65308;50.078;14.854;2023-04-24T17:59:11;98167.16;;;14.10
76476;BMP280;65308;50.078;14.854;2023-04-24T18:01:51;98163.75;;;14.27
76476;BMP280;65308;50.078;14.854;2023-04-24T18:04:54;98166.16;;;14.08
76476;BMP280;65308;50.078;14.854;2023-04-24T18:07:27;98174.00;;;14.06
76476;BMP280;65308;50.078;14.854;2023-04-24T18:09:54;98174.75;;;14.17
76476;BMP280;65308;50.078;14.854;2023-04-24T18:12:21;98174.03;;;14.22
76476;BMP280;65308;50.078;14.854;2023-04-24T18:14:48;98179.91;;;14.32
76476;BMP280;65308;50.078;14.854;2023-04-24T18:17:15;98192.38;;;14.30
76476;BMP280;65308;50.078;14.854;2023-04-24T18:19:43;98190.91;;;14.29
76476;BMP280;65308;50.078;14.854;2023-04-24T18:22:13;98195.31;;;14.26
76476;BMP280;65308;50.078;14.854;2023-04-24T18:24:42;98204.13;;;14.27
76476;BMP280;65308;50.078;14.854;2023-04-24T18:27:09;98209.50;;;14.27
76476;BMP280;65308;50.078;14.854;2023-04-24T18:29:38;98199.91;;;14.03
76476;BMP280;65308;50.078;14.854;2023-04-24T18:32:21;98205.56;;;14.05
76476;BMP280;65308;50.078;14.854;2023-04-24T18:34:56;98206.25;;;13.94
76476;BMP280;65308;50.078;14.854;2023-04-24T18:37:36;98213.31;;;13.81
76476;BMP280;65308;50.078;14.854;2023-04-24T18:40:19;98224.25;;;13.71
76476;BMP280;65308;50.078;14.854;2023-04-24T18:43:03;98222.09;;;13.75
76476;BMP280;65308;50.078;14.854;2023-04-24T18:45:29;98220.66;;;13.80
76476;BMP280;65308;50.078;14.854;2023-04-24T18:47:56;98225.78;;;13.84
76476;BMP280;65308;50.078;14.854;2023-04-24T18:50:24;98229.28;;;14.07
76476;BMP280;65308;50.078;14.854;2023-04-24T18:52:54;98239.53;;;13.97
76476;BMP280;65308;50.078;14.854;2023-04-24T18:55:25;98241.72;;;13.93
76476;BMP280;65308;50.078;14.854;2023-04-24T18:57:59;98244.41;;;13.87
76476;BMP280;65308;50.078;14.854;2023-04-24T19:00:26;98250.47;;;13.77
76476;BMP280;65308;50.078;14.854;2023-04-24T19:03:00;98252.63;;;13.72
76476;BMP280;65308;50.078;14.854;2023-04-24T19:05:33;98252.88;;;13.74
76476;BMP280;65308;50.078;14.854;2023-04-24T20:04:33;98285.72;;;12.52
76476;BMP280;65308;50.078;14.854;2023-04-24T20:09:48;98295.25;;;12.53
76476;BMP280;65308;50.078;14.854;2023-04-24T20:15:12;98294.25;;;12.50
76476;BMP280;65308;50.078;14.854;2023-04-24T20:18:21;98295.91;;;12.48
76476;BMP280;65308;50.078;14.854;2023-04-24T20:23:33;98300.34;;;12.31
76476;BMP280;65308;50.078;14.854;2023-04-24T20:26:00;98296.31;;;12.15
76476;BMP280;65308;50.078;14.854;2023-04-24T20:28:29;98298.16;;;12.09
76476;BMP280;65308;50.078;14.854;2023-04-24T20:30:56;98305.16;;;12.00
76476;BMP280;65308;50.078;14.854;2023-04-24T20:33:23;98297.50;;;11.93
76476;BMP280;65308;50.078;14.854;2023-04-24T20:35:52;98307.31;;;12.02
76476;BMP280;65308;50.078;14.854;2023-04-24T20:38:19;98311.84;;;11.75
76476;BMP280;65308;50.078;14.854;2023-04-24T20:40:58;98307.09;;;11.65
76476;BMP280;65308;50.078;14.854;2023-04-24T20:43:34;98318.09;;;11.67
76476;BMP280;65308;50.078;14.854;2023-04-24T20:46:01;98311.41;;;11.62
76476;BMP280;65308;50.078;14.854;2023-04-24T20:48:37;98320.50;;;11.65
76476;BMP280;65308;50.078;14.854;2023-04-24T20:51:04;98322.22;;;11.68
76476;BMP280;65308;50.078;14.854;2023-04-24T20:53:31;98321.75;;;11.69
76476;BMP280;65308;50.078;14.854;2023-04-24T20:58:31;98321.84;;;11.75
76476;BMP280;65308;50.078;14.854;2023-04-24T21:00:58;98320.13;;;11.72
76476;BMP280;65308;50.078;14.854;2023-04-24T21:03:24;98316.56;;;11.60
76476;BMP280;65308;50.078;14.854;2023-04-24T21:05:51;98316.03;;;11.62
76476;BMP280;65308;50.078;14.854;2023-04-24T21:08:18;98317.72;;;11.59
76476;BMP280;65308;50.078;14.854;2023-04-24T21:10:44;98325.13;;;11.49
76476;BMP280;65308;50.078;14.854;2023-04-24T21:13:11;98332.13;;;11.62
76476;BMP280;65308;50.078;14.854;2023-04-24T21:15:41;98323.81;;;11.74
76476;BMP280;65308;50.078;14.854;2023-04-24T21:18:08;98327.94;;;11.75
76476;BMP280;65308;50.078;14.854;2023-04-24T21:20:35;98319.41;;;11.92
76476;BMP280;65308;50.078;14.854;2023-04-24T21:23:02;98324.63;;;11.80
76476;BMP280;65308;50.078;14.854;2023-04-24T21:25:29;98322.47;;;11.85
76476;BMP280;65308;50.078;14.854;2023-04-24T21:27:57;98324.72;;;11.71
76476;BMP280;65308;50.078;14.854;2023-04-24T21:30:24;98332.84;;;11.77
76476;BMP280;65308;50.078;14.854;2023-04-24T21:32:52;98330.63;;;11.75
76476;BMP280;65308;50.078;14.854;2023-04-24T21:35:20;98330.75;;;11.66
76476;BMP280;65308;50.078;14.854;2023-04-24T21:37:47;98342.59;;;11.60
76476;BMP280;65308;50.078;14.854;2023-04-24T21:40:13;98327.41;;;11.71
76476;BMP280;65308;50.078;14.854;2023-04-24T21:42:42;98331.88;;;11.60
76476;BMP280;65308;50.078;14.854;2023-04-24T21:45:10;98326.31;;;11.63
76476;BMP280;65308;50.078;14.854;2023-04-24T21:47:38;98330.41;;;11.44
76476;BMP280;65308;50.078;14.854;2023-04-24T21:52:41;98335.84;;;11.49
76476;BMP280;65308;50.078;14.854;2023-04-24T21:55:08;98334.88;;;11.32
76476;BMP280;65308;50.078;14.854;2023-04-24T21:57:41;98334.75;;;11.41
76476;BMP280;65308;50.078;14.854;2023-04-24T22:00:08;98347.31;;;11.50
76476;BMP280;65308;50.078;14.854;2023-04-24T22:02:44;98325.97;;;11.55
76476;BMP280;65308;50.078;14.854;2023-04-24T22:05:19;98345.06;;;11.63
76476;BMP280;65308;50.078;14.854;2023-04-24T22:10:34;98334.13;;;11.82
76476;BMP280;65308;50.078;14.854;2023-04-24T22:13:02;98328.13;;;11.87
76476;BMP280;65308;50.078;14.854;2023-04-24T22:15:41;98341.69;;;11.83
76476;BMP280;65308;50.078;14.854;2023-04-24T22:18:17;98332.75;;;11.86
76476;BMP280;65308;50.078;14.854;2023-04-24T22:20:55;98329.19;;;11.74
76476;BMP280;65308;50.078;14.854;2023-04-24T22:23:29;98338.78;;;11.66
76476;BMP280;65308;50.078;14.854;2023-04-24T22:25:57;98337.88;;;11.54
76476;BMP280;65308;50.078;14.854;2023-04-24T22:28:24;98338.63;;;11.40
76476;BMP280;65308;50.078;14.854;2023-04-24T22:30:52;98336.44;;;11.39
76476;BMP280;65308;50.078;14.854;2023-04-24T22:33:19;98339.28;;;11.50
76476;BMP280;65308;50.078;14.854;2023-04-24T22:35:46;98344.91;;;11.52
76476;BMP280;65308;50.078;14.854;2023-04-24T22:38:16;98345.06;;;11.63
76476;BMP280;65308;50.078;14.854;2023-04-24T22:41:02;98346.25;;;11.62
76476;BMP280;65308;50.078;14.854;2023-04-24T22:43:29;98355.28;;;11.44
76476;BMP280;65308;50.078;14.854;2023-04-24T22:45:56;98343.28;;;11.40
76476;BMP280;65308;50.078;14.854;2023-04-24T22:48:24;98344.56;;;11.29
76476;BMP280;65308;50.078;14.854;2023-04-24T22:51:04;98353.41;;;11.36
76476;BMP280;65308;50.078;14.854;2023-04-24T22:53:34;98344.34;;;11.33
76476;BMP280;65308;50.078;14.854;2023-04-24T22:56:03;98346.88;;;11.37
76476;BMP280;65308;50.078;14.854;2023-04-24T22:58:31;98353.03;;;11.43
76476;BMP280;65308;50.078;14.854;2023-04-24T23:00:58;98349.63;;;11.42
76476;BMP280;65308;50.078;14.854;2023-04-24T23:03:24;98347.31;;;11.50
76476;BMP280;65308;50.078;14.854;2023-04-24T23:05:51;98350.66;;;11.45
76476;BMP280;65308;50.078;14.854;2023-04-24T23:08:18;98347.84;;;11.54
76476;BMP280;65308;50.078;14.854;2023-04-24T23:10:45;98351.56;;;11.56
76476;BMP280;65308;50.078;14.854;2023-04-24T23:15:43;98353.31;;;11.60
76476;BMP280;65308;50.078;14.854;2023-04-24T23:18:10;98356.63;;;11.54
76476;BMP280;65308;50.078;14.854;2023-04-24T23:20:37;98358.94;;;11.47
76476;BMP280;65308;50.078;14.854;2023-04-24T23:23:04;98358.75;;;11.50
76476;BMP280;65308;50.078;14.854;2023-04-24T23:25:31;98360.41;;;11.48
76476;BMP280;65308;50.078;14.854;2023-04-24T23:27:58;98356.56;;;11.49
76476;BMP280;65308;50.078;14.854;2023-04-24T23:30:25;98362.50;;;11.53
76476;BMP280;65308;50.078;14.854;2023-04-24T23:32:55;98362.66;;;11.35
76476;BMP280;65308;50.078;14.854;2023-04-24T23:35:23;98369.41;;;11.30
76476;BMP280;65308;50.078;14.854;2023-04-24T23:37:51;98366.63;;;11.24
76476;BMP280;65308;50.078;14.854;2023-04-24T23:40:18;98364.41;;;11.08
76476;BMP280;65308;50.078;14.854;2023-04-24T23:42:45;98352.63;;;10.91
76476;BMP280;65308;50.078;14.854;2023-04-24T23:45:12;98362.25;;;10.97
76476;BMP280;65308;50.078;14.854;2023-04-24T23:47:38;98357.84;;;10.94
76476;BMP280;65308;50.078;14.854;2023-04-24T23:50:07;98360.19;;;10.77
76476;BMP280;65308;50.078;14.854;2023-04-24T23:52:34;98368.03;;;10.66
76476;BMP280;65308;50.078;14.854;2023-04-24T23:55:01;98361.69;;;10.54
76476;BMP280;65308;50.078;14.854;2023-04-24T23:57:28;98367.78;;;10.55